ADDS METAR Data INFO
IDs: Format: Raw Decoded Include TAF

Data at: 2112 UTC 22 Oct 2017

KFCM 222053Z 25009KT 10SM CLR 18/00 A2994 RMK AO2 SLP139 T01780000 56014
KFCM 221953Z 26011G14KT 10SM CLR 17/00 A2994 RMK AO2 SLP141 T01720000
KFCM 221853Z 26011G20KT 10SM CLR 17/01 A2996 RMK AO2 SLP146 T01670011
KFCM 221753Z 26011KT 10SM CLR 16/04 A2998 RMK AO2 SLP154 T01560039 10161 20078 58001
KFCM 221653Z 23009KT 10SM CLR 13/06 A3000 RMK AO2 SLP162 T01280056
KFCM 221553Z 23008KT 10SM CLR 09/06 A3000 RMK AO2 SLP162 T00890056
KFCM 221453Z 24005KT 10SM CLR 09/06 A2998 RMK AO2 SLP155 T00890056 51015
KFCM 221353Z 25005KT 10SM CLR 09/05 A2996 RMK AO2 SLP150 T00890050
KFCM 221253Z 25005KT 10SM CLR 08/05 A2996 RMK AO2 SLP147 T00830050
KFCM 221153Z 23005KT 10SM CLR 08/05 A2994 RMK AO2 SLP139 70042 T00830050 10100 20083 53016
KFCM 221053Z 25005KT 10SM CLR 09/05 A2992 RMK AO2 SLP132 T00890050
KFCM 220953Z AUTO 25006KT 10SM CLR 09/06 A2990 RMK AO2 SLP125 T00890056
KFCM 220853Z AUTO 25007KT 10SM CLR 09/06 A2989 RMK AO2 SLP121 T00890056 53008
KFCM 220753Z AUTO 25005KT 10SM CLR 09/06 A2988 RMK AO2 SLP117 T00890061
KFCM 220653Z AUTO 25005KT 10SM CLR 09/06 A2986 RMK AO2 SLP112 T00940061
KFCM 220553Z AUTO 26006KT 10SM CLR 10/07 A2986 RMK AO2 SLP112 60005 T01000067 10144 20100 402110100 51025
KFCM 220453Z AUTO 26005KT 10SM CLR 11/07 A2985 RMK AO2 SLP108 T01110072
KFCM 220353Z AUTO 27010G16KT 10SM CLR 12/08 A2982 RMK AO2 SLP097 T01170078
KFCM 220253Z AUTO 25009KT 10SM SCT065 BKN080 13/10 A2978 RMK AO2 RAE0155 SLP086 P0000 60005 T01280100 53024
KFCM 220153Z 25004KT 9SM -RA FEW039 BKN048 OVC070 13/11 A2974 RMK AO2 RAB0056 SLP070 P0004 T01280111
KFCM 220053Z 27006KT 10SM OVC032 14/11 A2974 RMK AO2 RAB07E40 SLP070 P0001 T01390111
KFCM 220044Z 27007KT 10SM OVC030 14/11 A2974 RMK AO2 RAB07E40 P0001 T01390111
KFCM 212353Z 26013G19KT 10SM OVC022 14/12 A2971 RMK AO2 PK WND 26027/2336 WSHFT 2328 RAB19E53 PRESRR SLP060 P0001 60001 T01440122 10211 20144 53026
KFCM 212348Z 27012G25KT 10SM -RA BKN019 BKN025 OVC033 14/12 A2970 RMK AO2 PK WND 26027/2336 WSHFT 2328 RAB19 PRESRR P0001
KFCM 212334Z 25016G24KT 6SM RA SCT020 BKN024 OVC035 19/16 A2968 RMK AO2 PK WND 15027/2304 WSHFT 2320 RAB19 PRESRR P0001 T01890161
KFCM 212253Z 17014G25KT 10SM FEW050 FEW070 SCT100 20/16 A2963 RMK AO2 PK WND 17029/2213 LTG DSNT W AND NW SLP029 T02000156
KFCM 212153Z 18017G25KT 10SM SCT022 BKN045 BKN060 20/16 A2963 RMK AO2 PK WND 17029/2142 SLP032 T02000156
KFCM 212053Z 17023G30KT 10SM BKN021 OVC026 21/16 A2962 RMK AO2 PK WND 15030/2051 SLP027 T02060161 58007
KFCM 211953Z 17019G28KT 10SM BKN019 OVC025 20/16 A2964 RMK AO2 PK WND 18028/1952 SLP034 T02000161
KFCM 211853Z 17015G24KT 10SM OVC018 19/16 A2964 RMK AO2 PK WND 18027/1830 SLP033 T01890161
KFCM 211804Z 18017G24KT 10SM OVC015 19/16 A2965 RMK AO2 T01890161
KFCM 211753Z 18015G31KT 10SM OVC014 19/16 A2964 RMK AO2 PK WND 18031/1744 SLP034 60036 T01890161 10189 20150 58006
KFCM 211653Z 17014G21KT 10SM OVC012 18/16 A2965 RMK AO2 RAE15 SLP038 P0001 T01780156
KFCM 211602Z 17008KT 9SM -RA BKN013 BKN021 OVC033 17/15 A2967 RMK AO2 P0001 T01670150
KFCM 211553Z 17009KT 10SM -RA SCT013 BKN021 OVC033 17/15 A2967 RMK AO2 RAE29B53 SLP045 P0000 T01670150
KFCM 211505Z 16011G18KT 9SM -RA BKN011 BKN033 OVC050 16/15 A2966 RMK AO2 LTG DSNT S AND NW P0000 T01610150
KFCM 211453Z 16011KT 6SM VCTS RA BR BKN013 BKN060 OVC110 16/14 A2966 RMK AO2 LTG DSNT S SLP041 P0005 60035 T01610144 58001
KFCM 211449Z 16010KT 6SM VCTS -RA BR SCT013 BKN060 OVC110 16/14 A2966 RMK AO2 LTG DSNT S P0003
KFCM 211439Z 16008G18KT 8SM -RA SCT013 BKN060 OVC110 16/14 A2965 RMK AO2 LTG DSNT S P0002 T01610144
KFCM 211353Z 17010G19KT 7SM -RA OVC013 16/14 A2968 RMK AO2 LTG DSNT NW SLP049 P0010 T01560139
KFCM 211253Z 15010KT 5SM RA BR OVC012 15/14 A2966 RMK AO2 PK WND 18026/1159 LTG DSNT W-N RAB1156 TSE35 SLP042 P0020 T01500139
KFCM 211240Z 15009G18KT 6SM -RA BR BKN012 OVC017 15/14 A2966 RMK AO2 PK WND 18026/1159 LTG DSNT ALQDS RAB1156 TSE35 P0017 T01500139
KFCM 211216Z 15009KT 2 1/2SM +TSRA BR BKN010 BKN017 OVC045 16/14 A2967 RMK AO2 PK WND 18026/1159 LTG DSNT ALQDS RAB1156 P0014 T01560144
KFCM 211153Z 18013G23KT 10SM TS BKN026 BKN030 OVC042 17/12 A2966 RMK AO2 LTG DSNT E-SW RAB30E39 TSB48 SLP040 P0000 60000 7//// T01720122 10189 20167 56004
KFCM 211143Z 18013G23KT 10SM VCTS BKN026 OVC032 17/12 A2966 RMK AO2 LTG DSNT SE-SW RAB30E39 P0000 T01720122
KFCM 211053Z 17015G19KT 10SM OVC032 17/12 A2966 RMK AO2 SLP041 T01720117
KFCM 210953Z AUTO 16008KT 10SM OVC034 17/12 A2967 RMK AO2 RAE02 SLP042 P0000 T01670117